ADDS METAR Data INFO
IDs: Format: Raw Decoded Include TAF

Data at: 0936 UTC 11 Dec 2017

KGNC 110915Z AUTO 26008KT 10SM CLR 02/M04 A3038 RMK AO2 T00181040
KGNC 110855Z AUTO 26009KT 10SM CLR 02/M04 A3038 RMK AO2 T00231042
KGNC 110835Z AUTO 26009KT 10SM CLR 02/M04 A3038 RMK AO2 T00221042
KGNC 110815Z AUTO 25009KT 10SM CLR 02/M04 A3038 RMK AO2 T00211045
KGNC 110755Z AUTO 25008KT 10SM CLR 02/M05 A3038 RMK AO2 T00211046
KGNC 110735Z AUTO 26008KT 10SM CLR 01/M05 A3038 RMK AO2 T00101052
KGNC 110715Z AUTO 26007KT 10SM CLR 02/M05 A3038 RMK AO2 T00171052
KGNC 110655Z AUTO 26008KT 10SM CLR 02/M06 A3039 RMK AO2 T00181056
KGNC 110635Z AUTO 26007KT 10SM CLR 02/M06 A3039 RMK AO2 T00241060
KGNC 110615Z AUTO 26007KT 10SM CLR 03/M06 A3040 RMK AO2 T00301056
KGNC 110555Z AUTO 26007KT 10SM CLR 03/M06 A3040 RMK AO2 T00321060 10115 20027 402051040
KGNC 110535Z AUTO 26007KT 10SM CLR 03/M06 A3040 RMK AO2 T00281064
KGNC 110515Z AUTO 25008KT 10SM CLR 03/M07 A3041 RMK AO2 T00291066
KGNC 110455Z AUTO 26008KT 10SM CLR 03/M07 A3041 RMK AO2 T00291066
KGNC 110435Z AUTO 26006KT 10SM CLR 03/M07 A3040 RMK AO2 T00281070
KGNC 110415Z AUTO 25006KT 10SM CLR 04/M07 A3040 RMK AO2 T00351070
KGNC 110355Z AUTO 24007KT 10SM CLR 04/M07 A3040 RMK AO2 T00411071
KGNC 110335Z AUTO 25008KT 10SM CLR 05/M08 A3039 RMK AO2 T00471076
KGNC 110315Z AUTO 24009KT 10SM CLR 05/M08 A3040 RMK AO2 T00471080
KGNC 110255Z AUTO 25009KT 10SM CLR 05/M09 A3040 RMK AO2 T00511090
KGNC 110235Z AUTO 26008KT 10SM CLR 06/M09 A3040 RMK AO2 T00581094
KGNC 110215Z AUTO 24008KT 10SM CLR 07/M09 A3040 RMK AO2 T00671095
KGNC 110155Z AUTO 24008KT 10SM CLR 08/M10 A3040 RMK AO2 T00781096
KGNC 110135Z AUTO 24008KT 10SM CLR 08/M09 A3040 RMK AO2 T00791093
KGNC 110115Z AUTO 24007KT 10SM CLR 09/M09 A3040 RMK AO2 T00881092
KGNC 110055Z AUTO 23009KT 10SM CLR 09/M09 A3039 RMK AO2 T00931089
KGNC 110035Z AUTO 23007KT 10SM CLR 10/M08 A3039 RMK AO2 T00951083
KGNC 110015Z AUTO 23007KT 10SM CLR 11/M08 A3039 RMK AO2 T01051085
KGNC 102355Z AUTO 22006KT 10SM CLR 12/M09 A3038 RMK AO2 T01171093 10205 20117
KGNC 102335Z AUTO 22007KT 10SM CLR 14/M10 A3038 RMK AO2 T01411102
KGNC 102315Z AUTO 22007KT 10SM CLR 16/M11 A3038 RMK AO2 T01611109
KGNC 102255Z AUTO 24005KT 10SM CLR 18/M12 A3038 RMK AO2 T01811118
KGNC 102235Z AUTO 25006KT 10SM CLR 20/M12 A3038 RMK AO2 T01951123
KGNC 102215Z AUTO 24006KT 10SM CLR 20/M12 A3038 RMK AO2 T01981122
KGNC 102155Z AUTO 26005KT 10SM CLR 20/M12 A3038 RMK AO2 T02001122
KGNC 102135Z AUTO 26010KT 10SM CLR 20/M12 A3038 RMK AO2 T02011120
KGNC 102115Z AUTO 27008KT 10SM CLR 20/M12 A3038 RMK AO2 T02021123
KGNC 102055Z AUTO 25007KT 10SM CLR 20/M12 A3038 RMK AO2 T02021122
KGNC 102035Z AUTO 28008KT 10SM CLR 20/M12 A3039 RMK AO2 T02011122
KGNC 102015Z AUTO 26008KT 10SM CLR 20/M12 A3040 RMK AO2 T01971117
KGNC 101955Z AUTO 26008KT 10SM CLR 19/M11 A3041 RMK AO2 T01931106
KGNC 101935Z AUTO 25009KT 10SM CLR 18/M12 A3042 RMK AO2 T01781117
KGNC 101915Z AUTO 25006KT 10SM CLR 18/M12 A3043 RMK AO2 T01841123
KGNC 101855Z AUTO 25010KT 10SM CLR 19/M11 A3043 RMK AO2 T01901114
KGNC 101835Z AUTO 26008KT 220V280 10SM CLR 18/M10 A3044 RMK AO2 T01831103
KGNC 101815Z AUTO 24008KT 10SM CLR 18/M10 A3045 RMK AO2 T01761096
KGNC 101755Z AUTO 24007KT 10SM CLR 17/M09 A3047 RMK AO2 T01741090 10174 21040
KGNC 101735Z AUTO 25006KT 10SM CLR 16/M08 A3047 RMK AO2 T01591081
KGNC 101715Z AUTO 28007KT 10SM CLR 15/M07 A3047 RMK AO2 T01471066
KGNC 101655Z AUTO 27004KT 10SM CLR 13/M06 A3048 RMK AO2 T01331058
KGNC 101635Z AUTO 28005KT 10SM CLR 12/M06 A3048 RMK AO2 T01211057
KGNC 101615Z AUTO 00000KT 10SM CLR 10/M05 A3048 RMK AO2 T01001051
KGNC 101555Z AUTO 00000KT 10SM CLR 08/M05 A3048 RMK AO2 T00751053
KGNC 101535Z AUTO 30003KT 10SM CLR 05/M06 A3048 RMK AO2 T00501059
KGNC 101515Z AUTO 30003KT 10SM CLR 03/M07 A3047 RMK AO2 T00321066
KGNC 101455Z AUTO 31005KT 10SM CLR 02/M07 A3047 RMK AO2 T00151072
KGNC 101435Z AUTO 31005KT 10SM CLR 00/M07 A3046 RMK AO2 T10041075
KGNC 101415Z AUTO 32006KT 10SM CLR M02/M08 A3046 RMK AO2 T10221077
KGNC 101355Z AUTO 31003KT 10SM CLR M03/M08 A3045 RMK AO2 T10261081
KGNC 101335Z AUTO 31004KT 10SM CLR M03/M08 A3045 RMK AO2 T10341080
KGNC 101315Z AUTO 32006KT 10SM CLR M03/M08 A3045 RMK AO2 T10301080
KGNC 101255Z AUTO 32005KT 10SM CLR M04/M08 A3044 RMK AO2 T10391081
KGNC 101235Z AUTO 32006KT 10SM CLR M03/M08 A3044 RMK AO2 T10351082
KGNC 101215Z AUTO 32005KT 10SM CLR M03/M08 A3044 RMK AO2 T10341081
KGNC 101155Z AUTO 32006KT 10SM CLR M03/M08 A3043 RMK AO2 T10301080 10017 21036
KGNC 101135Z AUTO 33008KT 10SM CLR M04/M08 A3042 RMK AO2 T10361080
KGNC 101115Z AUTO 33006KT 10SM CLR M03/M08 A3043 RMK AO2 T10321081
KGNC 101055Z AUTO 32007KT 10SM CLR M03/M08 A3043 RMK AO2 T10261085
KGNC 101035Z AUTO 32007KT 10SM CLR M02/M08 A3043 RMK AO2 T10251085
KGNC 101015Z AUTO 32007KT 10SM CLR M02/M08 A3043 RMK AO2 T10251083
KGNC 100955Z AUTO 32006KT 10SM CLR M02/M08 A3042 RMK AO2 T10251080
KGNC 100935Z AUTO 32007KT 10SM CLR M03/M08 A3042 RMK AO2 T10301077
KGNC 100915Z AUTO 32007KT 10SM CLR M02/M07 A3041 RMK AO2 T10251075
KGNC 100855Z AUTO 31007KT 10SM CLR M02/M07 A3041 RMK AO2 T10241072
KGNC 100835Z AUTO 32007KT 10SM CLR M01/M08 A3041 RMK AO2 T10061076
KGNC 100815Z AUTO 00000KT 10SM CLR 00/M08 A3041 RMK AO2 T00001080
KGNC 100755Z AUTO 33005KT 10SM CLR 00/M08 A3041 RMK AO2 T00001078
KGNC 100735Z AUTO 33006KT 10SM CLR M02/M07 A3042 RMK AO2 T10161070
KGNC 100715Z AUTO 33007KT 10SM CLR M01/M07 A3042 RMK AO2 T10101070
KGNC 100655Z AUTO 32006KT 10SM CLR M01/M07 A3042 RMK AO2 T10081070
KGNC 100635Z AUTO 32005KT 10SM CLR M01/M07 A3042 RMK AO2 T10091071
KGNC 100615Z AUTO 32006KT 10SM CLR 00/M07 A3042 RMK AO2 T00011071
KGNC 100555Z AUTO 30005KT 10SM CLR 02/M07 A3042 RMK AO2 T00151074 10129 21004 401811020
KGNC 100535Z AUTO 31007KT 10SM CLR 00/M06 A3042 RMK AO2 T10011065
KGNC 100515Z AUTO 31005KT 10SM CLR 00/M06 A3042 RMK AO2 T00021063
KGNC 100455Z AUTO 26005KT 10SM CLR 00/M06 A3042 RMK AO2 T00041065
KGNC 100435Z AUTO 29003KT 10SM CLR 01/M06 A3041 RMK AO2 T00051063
KGNC 100415Z AUTO 31004KT 10SM CLR 01/M06 A3042 RMK AO2 T00101064
KGNC 100355Z AUTO 32003KT 10SM CLR 03/M07 A3041 RMK AO2 T00261068
KGNC 100335Z AUTO 00000KT 10SM CLR 03/M07 A3041 RMK AO2 T00311069
KGNC 100315Z AUTO 00000KT 10SM CLR 04/M07 A3041 RMK AO2 T00361070
KGNC 100255Z AUTO 00000KT 10SM CLR 05/M08 A3040 RMK AO2 T00461076
KGNC 100235Z AUTO 28003KT 10SM CLR 04/M07 A3041 RMK AO2 T00411069
KGNC 100215Z AUTO 27003KT 10SM CLR 05/M07 A3040 RMK AO2 T00451070
KGNC 100155Z AUTO 26003KT 10SM CLR 05/M07 A3040 RMK AO2 T00531071
KGNC 100135Z AUTO 00000KT 10SM CLR 06/M08 A3039 RMK AO2 T00611082
KGNC 100115Z AUTO 00000KT 10SM CLR 06/M07 A3038 RMK AO2 T00591073
KGNC 100055Z AUTO 00000KT 10SM CLR 08/M08 A3038 RMK AO2 T00811085
KGNC 100035Z AUTO 00000KT 10SM CLR 10/M10 A3037 RMK AO2 T01021097
KGNC 100015Z AUTO 00000KT 10SM CLR 12/M10 A3036 RMK AO2 T01171104
KGNC 092355Z AUTO 01004KT 10SM CLR 13/M11 A3036 RMK AO2 T01331109 10181 20133
KGNC 092335Z AUTO 36004KT 10SM CLR 15/M11 A3036 RMK AO2 T01481112
KGNC 092315Z AUTO 36004KT 10SM CLR 16/M12 A3036 RMK AO2 T01601116
KGNC 092255Z AUTO 01007KT 10SM CLR 17/M12 A3035 RMK AO2 T01681121
KGNC 092235Z AUTO 01006KT 10SM CLR 17/M12 A3034 RMK AO2 T01731119
KGNC 092215Z AUTO 01009KT 10SM CLR 18/M12 A3034 RMK AO2 T01751122
KGNC 092155Z AUTO 02011G15KT 10SM CLR 18/M12 A3034 RMK AO2 T01751124